Time;durP1;ratioP1;P1;durP2;ratioP2;P2;SDS_P1;SDS_P2;PMS_P1;PMS_P2;Temp;Humidity;BMP_temperature;BMP_pressure;BME280_temperature;BME280_humidity;BME280_pressure;Samples;Min_cycle;Max_cycle;Signal;HPM_P1;HPM_P2
2023/05/05 00:00:58;;;;;;;0.90;0.90;;;12.20;1.00;;;;;;5021714;28;20511;-76
2023/05/05 00:03:26;;;;;;;0.80;0.80;;;12.10;18.40;;;;;;5022553;28;20946;-76
2023/05/05 00:05:54;;;;;;;0.60;0.60;;;12.00;99.90;;;;;;5019202;28;20429;-76
2023/05/05 00:08:23;;;;;;;0.50;0.50;;;11.90;99.90;;;;;;5015866;28;20947;-76
2023/05/05 00:10:52;;;;;;;2.00;1.00;;;11.80;99.90;;;;;;5011308;28;20460;-76
2023/05/05 00:13:22;;;;;;;0.70;0.70;;;11.80;1.00;;;;;;5019265;28;20433;-76
2023/05/05 00:15:50;;;;;;;0.75;0.63;;;11.80;1.00;;;;;;5023384;28;20441;-76
2023/05/05 00:18:20;;;;;;;0.47;0.47;;;11.70;1.00;;;;;;5022898;28;20820;-76
2023/05/05 00:20:47;;;;;;;1.10;0.90;;;11.70;1.00;;;;;;5023053;28;20431;-76
2023/05/05 00:23:17;;;;;;;0.90;0.70;;;11.80;5.60;;;;;;5017081;28;20439;-76
2023/05/05 00:25:45;;;;;;;1.50;0.93;;;11.80;25.70;;;;;;5019562;28;20441;-76
2023/05/05 00:28:13;;;;;;;0.60;0.60;;;11.70;99.90;;;;;;5016305;28;21220;-77
2023/05/05 00:30:40;;;;;;;1.10;0.88;;;11.70;99.90;;;;;;5022741;28;20489;-76
2023/05/05 00:33:06;;;;;;;1.27;0.88;;;11.80;99.90;;;;;;5023841;28;20438;-76
2023/05/05 00:35:33;;;;;;;2.10;0.55;;;11.80;99.90;;;;;;5020711;28;20431;-77
2023/05/05 00:38:01;;;;;;;0.98;0.88;;;11.80;99.90;;;;;;5022769;28;20848;-76
2023/05/05 00:40:28;;;;;;;0.77;0.77;;;11.80;99.90;;;;;;5015675;28;20434;-77
2023/05/05 00:42:55;;;;;;;0.60;0.60;;;11.70;99.90;;;;;;5016480;28;20434;-77
2023/05/05 00:45:22;;;;;;;0.80;0.80;;;11.70;99.90;;;;;;5018012;28;20849;-77
2023/05/05 00:47:52;;;;;;;0.60;0.60;;;11.70;99.90;;;;;;5015898;28;20447;-77
2023/05/05 00:50:27;;;;;;;1.10;1.08;;;11.60;1.00;;;;;;5018581;28;20441;-77
2023/05/05 00:53:05;;;;;;;0.77;0.77;;;11.50;1.00;;;;;;5022511;28;20438;-77
2023/05/05 00:55:33;;;;;;;0.93;0.93;;;11.50;99.90;;;;;;5023847;28;20825;-77
2023/05/05 00:58:01;;;;;;;1.33;0.68;;;11.50;99.90;;;;;;5026607;28;20438;-77
2023/05/05 01:00:29;;;;;;;0.80;0.80;;;11.50;99.90;;;;;;5025637;28;20427;-76
2023/05/05 01:02:56;;;;;;;2.60;0.80;;;11.40;99.90;;;;;;5025847;28;22880;-77
2023/05/05 01:05:24;;;;;;;1.00;0.90;;;11.30;1.00;;;;;;5022744;28;21154;-77
2023/05/05 01:08:23;;;;;;;0.90;0.90;;;11.30;1.00;;;;;;5020594;28;21202;-77
2023/05/05 01:11:00;;;;;;;2.58;1.15;;;11.20;99.90;;;;;;5024745;28;20825;-78
2023/05/05 01:13:44;;;;;;;0.90;0.90;;;11.10;99.90;;;;;;5026957;28;20512;-78
2023/05/05 01:16:24;;;;;;;0.97;0.97;;;11.00;99.90;;;;;;5016615;28;20438;-78
2023/05/05 01:19:13;;;;;;;1.00;1.00;;;11.00;99.90;;;;;;5028394;28;20486;-78
2023/05/05 01:21:45;;;;;;;2.13;1.50;;;11.00;99.90;;;;;;5017848;28;20927;-77
2023/05/05 01:24:29;;;;;;;0.68;0.68;;;10.90;27.60;;;;;;5022785;28;20427;-77
2023/05/05 01:27:11;;;;;;;1.60;1.00;;;10.90;3.60;;;;;;5025324;28;20423;-77
2023/05/05 01:29:46;;;;;;;1.05;0.95;;;11.00;99.90;;;;;;5020607;28;20427;-77
2023/05/05 01:32:18;;;;;;;1.25;1.25;;;11.00;1.00;;;;;;5024661;28;20442;-77
2023/05/05 01:35:00;;;;;;;1.25;1.10;;;11.00;99.90;;;;;;5026888;28;20466;-77
2023/05/05 01:37:42;;;;;;;0.65;0.55;;;11.00;29.80;;;;;;5028107;28;20426;-77
2023/05/05 01:40:11;;;;;;;0.60;0.60;;;11.00;1.00;;;;;;5025090;28;20504;-77
2023/05/05 01:42:41;;;;;;;0.80;0.80;;;10.90;99.90;;;;;;5017880;28;20930;-77
2023/05/05 01:45:10;;;;;;;0.90;0.90;;;10.80;99.90;;;;;;5024089;28;20435;-77
2023/05/05 01:47:38;;;;;;;0.85;0.85;;;10.70;1.00;;;;;;5025244;28;20442;-77
2023/05/05 01:50:09;;;;;;;0.73;0.73;;;10.60;99.90;;;;;;5042789;28;20996;-77
2023/05/05 01:52:38;;;;;;;0.80;0.80;;;10.50;2.80;;;;;;5027809;28;20524;-77
2023/05/05 01:55:14;;;;;;;1.30;1.20;;;10.30;99.90;;;;;;5021173;28;20436;-77
2023/05/05 01:57:42;;;;;;;1.08;1.00;;;10.20;1.00;;;;;;5022519;28;20508;-76
2023/05/05 02:00:10;;;;;;;0.98;0.98;;;10.10;1.00;;;;;;5027272;28;20466;-77
2023/05/05 02:02:39;;;;;;;0.90;0.90;;;10.00;99.90;;;;;;5025553;28;20438;-77
2023/05/05 02:05:07;;;;;;;0.80;0.80;;;9.90;99.90;;;;;;5026141;28;20485;-77
2023/05/05 02:07:34;;;;;;;0.65;0.65;;;9.90;1.00;;;;;;5018046;28;20434;-77
2023/05/05 02:10:03;;;;;;;1.10;1.00;;;9.90;8.60;;;;;;5024916;28;20434;-77
2023/05/05 02:12:31;;;;;;;1.30;0.90;;;9.90;91.20;;;;;;5025172;28;20438;-77
2023/05/05 02:15:00;;;;;;;0.90;0.90;;;10.00;99.90;;;;;;5025721;28;20435;-77
2023/05/05 02:17:28;;;;;;;1.03;0.90;;;10.10;99.90;;;;;;5023147;28;20514;-77
2023/05/05 02:19:57;;;;;;;0.80;0.80;;;10.20;99.90;;;;;;5014132;28;20849;-77
2023/05/05 02:22:24;;;;;;;0.85;0.80;;;10.30;93.40;;;;;;5017254;28;20437;-78
2023/05/05 02:24:51;;;;;;;0.60;0.60;;;10.40;1.00;;;;;;5026653;28;20917;-78
2023/05/05 02:27:23;;;;;;;1.10;1.00;;;10.40;1.00;;;;;;5024434;28;20431;-78
2023/05/05 02:29:55;;;;;;;0.80;0.80;;;10.40;1.00;;;;;;5026324;28;20427;-77
2023/05/05 02:32:38;;;;;;;1.07;1.07;;;10.50;1.00;;;;;;5025365;28;20435;-78
2023/05/05 02:35:14;;;;;;;3.65;0.80;;;10.50;1.00;;;;;;5024160;28;20438;-77
2023/05/05 02:37:58;;;;;;;1.17;1.13;;;10.60;99.90;;;;;;5022037;28;20460;-78
2023/05/05 02:40:29;;;;;;;1.85;1.00;;;10.50;99.90;;;;;;5025753;28;20945;-78
2023/05/05 02:42:58;;;;;;;1.13;1.10;;;10.40;99.90;;;;;;5024928;28;20431;-78
2023/05/05 02:45:27;;;;;;;0.80;0.80;;;10.30;1.00;;;;;;5025187;28;20439;-78
2023/05/05 02:47:53;;;;;;;0.60;0.60;;;10.30;35.00;;;;;;5021181;28;21164;-77
2023/05/05 02:50:24;;;;;;;2.30;0.90;;;10.30;97.60;;;;;;5024307;28;20431;-77
2023/05/05 02:52:54;;;;;;;1.13;1.13;;;10.30;88.20;;;;;;5024242;28;20492;-78
2023/05/05 02:55:20;;;;;;;0.65;0.65;;;10.30;96.00;;;;;;5025931;28;20427;-77
2023/05/05 02:58:03;;;;;;;1.25;0.77;;;10.30;99.90;;;;;;5023208;28;20461;-78
2023/05/05 03:00:35;;;;;;;1.98;1.35;;;10.30;99.90;;;;;;5018156;28;20431;-78
2023/05/05 03:03:21;;;;;;;1.50;0.90;;;10.20;99.90;;;;;;5012561;28;20454;-77
2023/05/05 03:06:03;;;;;;;0.75;0.75;;;10.20;99.90;;;;;;5022090;28;20435;-77
2023/05/05 03:08:41;;;;;;;0.65;0.65;;;10.20;99.90;;;;;;5023087;28;20782;-78
2023/05/05 03:11:17;;;;;;;0.77;0.77;;;10.10;99.90;;;;;;5015838;28;20470;-78
2023/05/05 03:13:47;;;;;;;0.93;0.93;;;10.10;99.90;;;;;;5025133;28;20445;-78
2023/05/05 03:16:17;;;;;;;2.70;0.93;;;10.00;99.90;;;;;;5015317;28;20707;-78
2023/05/05 03:18:45;;;;;;;1.08;1.08;;;9.90;99.90;;;;;;5021675;28;20483;-78
2023/05/05 03:21:13;;;;;;;1.02;1.02;;;9.80;99.90;;;;;;5025009;28;20434;-77
2023/05/05 03:23:39;;;;;;;0.90;0.90;;;9.70;99.90;;;;;;5030386;28;20458;-78
2023/05/05 03:26:06;;;;;;;1.87;1.10;;;9.60;99.90;;;;;;5025394;28;20430;-78
2023/05/05 03:28:33;;;;;;;1.10;1.10;;;9.60;99.90;;;;;;5023682;28;20500;-78
2023/05/05 03:31:00;;;;;;;2.05;1.30;;;9.60;99.90;;;;;;5019791;28;20432;-78
2023/05/05 03:33:26;;;;;;;0.85;0.85;;;9.50;1.00;;;;;;5016298;28;20589;-78
2023/05/05 03:35:53;;;;;;;1.17;1.10;;;9.50;1.00;;;;;;5015158;28;20557;-78
2023/05/05 03:38:20;;;;;;;2.90;1.48;;;9.50;1.00;;;;;;5021385;28;20427;-78
2023/05/05 03:40:46;;;;;;;1.30;1.15;;;9.40;1.00;;;;;;5018955;28;20446;-78
2023/05/05 03:43:13;;;;;;;1.77;1.08;;;9.30;1.00;;;;;;5017916;28;20427;-78
2023/05/05 03:45:40;;;;;;;1.90;1.50;;;9.20;1.00;;;;;;5025353;28;20562;-78
2023/05/05 03:48:08;;;;;;;0.80;0.80;;;9.20;1.00;;;;;;5014574;28;20482;-78
2023/05/05 03:50:35;;;;;;;1.90;1.45;;;9.10;1.00;;;;;;5016210;28;20465;-78
2023/05/05 03:53:04;;;;;;;1.27;1.17;;;9.10;1.00;;;;;;5023869;28;20434;-78
2023/05/05 03:55:31;;;;;;;1.30;1.23;;;9.10;1.00;;;;;;5024520;28;20438;-78
2023/05/05 03:57:57;;;;;;;1.07;1.07;;;9.10;1.00;;;;;;5023129;28;21016;-78
2023/05/05 04:00:24;;;;;;;1.45;1.35;;;9.20;1.00;;;;;;5025398;28;20430;-78
2023/05/05 04:02:51;;;;;;;1.90;1.40;;;9.20;1.00;;;;;;5012451;28;20440;-77
2023/05/05 04:05:18;;;;;;;0.97;0.97;;;9.20;1.00;;;;;;5024707;28;20435;-78
2023/05/05 04:07:45;;;;;;;1.20;1.10;;;9.20;1.00;;;;;;5020724;28;20440;-78
2023/05/05 04:10:14;;;;;;;1.70;1.10;;;9.20;1.00;;;;;;5021790;28;20524;-78
2023/05/05 04:12:41;;;;;;;0.95;0.90;;;9.30;1.00;;;;;;5017307;28;20810;-77
2023/05/05 04:15:08;;;;;;;2.75;1.35;;;9.30;1.00;;;;;;5024570;28;20873;-78
2023/05/05 04:17:35;;;;;;;0.85;0.85;;;9.30;1.00;;;;;;5023634;28;20426;-78
2023/05/05 04:20:02;;;;;;;1.67;1.17;;;9.30;1.00;;;;;;5024514;28;20925;-78
2023/05/05 04:22:29;;;;;;;1.50;1.40;;;9.30;1.00;;;;;;5022628;28;20434;-78
2023/05/05 04:24:56;;;;;;;2.10;1.10;;;9.30;1.00;;;;;;5025842;28;20443;-77
2023/05/05 04:27:24;;;;;;;0.68;0.68;;;9.40;1.00;;;;;;5021032;28;20427;-78
2023/05/05 04:29:51;;;;;;;1.50;1.33;;;9.50;1.00;;;;;;5023552;28;20439;-78
2023/05/05 04:32:18;;;;;;;1.10;1.10;;;9.70;1.00;;;;;;5020266;28;20480;-78
2023/05/05 04:34:45;;;;;;;0.73;0.73;;;9.90;1.00;;;;;;5024287;28;20538;-78
2023/05/05 04:37:12;;;;;;;1.02;0.93;;;10.10;1.00;;;;;;5024974;28;20426;-78
2023/05/05 04:39:41;;;;;;;1.02;1.02;;;10.30;1.00;;;;;;5024800;28;20430;-78
2023/05/05 04:42:08;;;;;;;1.35;1.25;;;10.50;1.00;;;;;;5020402;28;20806;-78
2023/05/05 04:44:35;;;;;;;1.83;1.07;;;10.70;1.00;;;;;;5011066;28;20763;-78
2023/05/05 04:47:04;;;;;;;1.17;1.10;;;10.90;1.00;;;;;;5015658;28;20441;-78
2023/05/05 04:49:31;;;;;;;1.15;1.00;;;11.10;1.00;;;;;;5024569;28;20514;-78
2023/05/05 04:51:58;;;;;;;2.10;1.45;;;11.30;99.90;;;;;;5025666;28;20431;-78
2023/05/05 04:54:25;;;;;;;1.33;1.23;;;11.40;99.90;;;;;;5021048;28;20435;-78
2023/05/05 04:56:52;;;;;;;1.38;1.38;;;11.60;99.90;;;;;;5025009;28;20477;-78
2023/05/05 04:59:18;;;;;;;1.03;1.03;;;11.70;1.00;;;;;;5018647;28;20439;-78
2023/05/05 05:01:45;;;;;;;1.90;1.17;;;11.70;1.00;;;;;;5017413;28;20443;-78
2023/05/05 05:04:12;;;;;;;1.00;0.93;;;11.70;99.90;;;;;;5021576;28;20798;-78
2023/05/05 05:06:39;;;;;;;1.00;1.00;;;11.70;99.90;;;;;;5016757;28;20447;-78
2023/05/05 05:09:06;;;;;;;1.40;1.30;;;11.60;99.90;;;;;;5012101;28;20439;-78
2023/05/05 05:11:33;;;;;;;0.80;0.80;;;11.70;1.00;;;;;;5022186;28;20440;-77
2023/05/05 05:13:59;;;;;;;1.10;1.00;;;11.80;1.00;;;;;;5009034;28;20489;-78
2023/05/05 05:16:26;;;;;;;1.38;1.27;;;11.90;1.00;;;;;;5016033;28;20471;-78
2023/05/05 05:18:56;;;;;;;1.60;1.00;;;12.10;1.00;;;;;;5019914;28;20996;-78
2023/05/05 05:21:23;;;;;;;1.40;1.30;;;12.50;1.00;;;;;;5026169;28;20442;-78
2023/05/05 05:23:50;;;;;;;1.23;1.13;;;13.30;66.30;;;;;;5022479;28;20438;-78
2023/05/05 05:26:16;;;;;;;1.40;1.27;;;14.00;99.90;;;;;;5017656;28;20917;-78
2023/05/05 05:28:43;;;;;;;1.13;1.13;;;14.20;99.90;;;;;;5022025;28;20435;-78
2023/05/05 05:31:10;;;;;;;0.93;0.93;;;14.20;1.00;;;;;;5019090;28;20434;-78
2023/05/05 05:33:37;;;;;;;1.23;1.13;;;14.20;96.10;;;;;;5021487;28;21007;-78
2023/05/05 05:36:04;;;;;;;2.50;1.58;;;14.30;99.90;;;;;;5020209;28;20442;-78
2023/05/05 05:38:31;;;;;;;1.88;1.30;;;14.50;1.00;;;;;;5023224;28;20514;-78
2023/05/05 05:40:57;;;;;;;1.57;1.47;;;14.30;99.90;;;;;;5011691;28;20558;-78
2023/05/05 05:43:24;;;;;;;1.70;1.30;;;14.10;1.00;;;;;;5014737;28;20948;-78
2023/05/05 05:45:51;;;;;;;1.70;1.60;;;14.00;1.00;;;;;;5020457;28;20513;-78
2023/05/05 05:48:17;;;;;;;1.60;1.50;;;14.00;99.90;;;;;;5019535;28;20522;-78
2023/05/05 05:50:44;;;;;;;3.20;1.60;;;14.00;99.90;;;;;;5014764;28;20433;-78
2023/05/05 05:53:11;;;;;;;1.10;1.10;;;14.10;99.90;;;;;;5017156;28;20492;-78
2023/05/05 05:55:37;;;;;;;2.65;1.73;;;14.60;1.00;;;;;;5016361;28;20982;-79
2023/05/05 05:58:04;;;;;;;1.53;1.43;;;15.50;99.90;;;;;;5010958;28;20697;-79
2023/05/05 06:00:31;;;;;;;1.30;1.30;;;16.20;99.90;;;;;;5012334;28;20601;-79
2023/05/05 06:02:58;;;;;;;1.45;1.38;;;16.90;1.00;;;;;;5021263;28;20633;-78
2023/05/05 06:05:24;;;;;;;1.40;1.30;;;17.50;99.90;;;;;;5010529;28;20438;-78
2023/05/05 06:07:51;;;;;;;1.90;1.80;;;18.20;99.90;;;;;;5014282;28;20561;-78
2023/05/05 06:10:18;;;;;;;3.40;1.70;;;18.80;99.90;;;;;;5018406;28;20434;-79
2023/05/05 06:12:54;;;;;;;1.65;1.55;;;19.20;99.90;;;;;;5019934;28;20445;-78
2023/05/05 06:15:20;;;;;;;3.00;1.97;;;19.60;99.90;;;;;;5014824;28;20930;-78
2023/05/05 06:17:47;;;;;;;1.75;1.60;;;19.20;99.90;;;;;;5014825;28;20455;-77
2023/05/05 06:20:14;;;;;;;1.60;1.50;;;19.10;99.90;;;;;;5022681;28;20949;-77
2023/05/05 06:22:41;;;;;;;2.83;2.00;;;18.90;99.90;;;;;;5019798;28;20773;-77
2023/05/05 06:25:08;;;;;;;1.40;1.38;;;18.70;99.90;;;;;;5014376;28;20769;-77
2023/05/05 06:27:34;;;;;;;1.10;1.10;;;19.00;99.90;;;;;;5023193;28;20442;-76
2023/05/05 06:30:01;;;;;;;2.28;1.50;;;19.10;99.90;;;;;;5015274;28;21178;-77
2023/05/05 06:32:28;;;;;;;1.40;1.40;;;18.90;99.90;;;;;;5027772;28;20623;-77
2023/05/05 06:35:08;;;;;;;2.08;1.55;;;18.80;99.90;;;;;;5031601;28;20796;-77
2023/05/05 06:37:38;;;;;;;1.58;1.50;;;18.90;99.90;;;;;;5024335;28;20438;-77
2023/05/05 06:40:06;;;;;;;1.65;1.55;;;18.80;99.90;;;;;;5024650;28;20431;-77
2023/05/05 06:42:34;;;;;;;1.45;1.35;;;18.60;99.90;;;;;;5017155;28;20935;-78
2023/05/05 06:45:01;;;;;;;1.48;1.38;;;18.30;99.90;;;;;;5011430;28;20856;-78
2023/05/05 06:47:28;;;;;;;1.60;1.50;;;18.00;99.90;;;;;;5017153;28;20441;-81
2023/05/05 06:49:57;;;;;;;2.50;1.55;;;18.10;99.90;;;;;;5017336;28;20512;-81
2023/05/05 06:52:24;;;;;;;1.60;1.50;;;18.50;99.90;;;;;;5018742;28;20458;-78
2023/05/05 06:54:54;;;;;;;1.67;1.57;;;18.90;99.90;;;;;;5019350;28;20432;-77
2023/05/05 06:57:21;;;;;;;1.65;1.42;;;19.10;99.90;;;;;;5017465;28;20443;-77
2023/05/05 06:59:48;;;;;;;1.60;1.17;;;19.80;99.90;;;;;;5024204;28;20462;-78
2023/05/05 07:02:17;;;;;;;1.65;1.55;;;19.90;99.90;;;;;;5028067;28;20434;-77
2023/05/05 07:04:44;;;;;;;1.70;1.48;;;20.10;99.90;;;;;;5027094;28;20435;-76
2023/05/05 07:07:10;;;;;;;1.83;1.73;;;19.80;99.90;;;;;;5028707;28;20434;-77
2023/05/05 07:09:37;;;;;;;2.67;1.50;;;19.70;99.90;;;;;;5022957;28;20470;-76
2023/05/05 07:12:04;;;;;;;2.83;1.67;;;19.90;99.90;;;;;;5021630;28;21040;-77
2023/05/05 07:14:31;;;;;;;1.63;1.53;;;20.40;99.90;;;;;;5026596;28;20944;-77
2023/05/05 07:16:58;;;;;;;1.73;1.63;;;21.10;99.90;;;;;;5023371;28;20456;-76
2023/05/05 07:19:24;;;;;;;1.17;1.17;;;21.40;99.90;;;;;;5027906;28;20475;-77
2023/05/05 07:21:51;;;;;;;1.80;1.70;;;21.30;99.90;;;;;;5017849;28;20435;-77
2023/05/05 07:24:18;;;;;;;1.48;1.38;;;21.50;99.90;;;;;;5024839;28;20427;-78
2023/05/05 07:26:45;;;;;;;1.25;1.25;;;21.90;99.90;;;;;;5019471;28;20439;-78
2023/05/05 07:29:11;;;;;;;2.03;1.67;;;22.00;99.90;;;;;;5025037;28;20437;-78
2023/05/05 07:31:38;;;;;;;1.23;1.23;;;22.30;99.90;;;;;;5023618;28;20493;-78
2023/05/05 07:34:05;;;;;;;1.17;1.17;;;22.90;99.90;;;;;;5024473;28;21188;-78
2023/05/05 07:36:31;;;;;;;6.28;1.63;;;22.00;99.90;;;;;;5021502;28;20797;-78
2023/05/05 07:39:01;;;;;;;2.70;1.40;;;22.60;99.90;;;;;;5025275;28;20427;-78
2023/05/05 07:41:28;;;;;;;1.55;1.45;;;22.40;99.90;;;;;;5022498;28;20423;-77
2023/05/05 07:43:54;;;;;;;1.05;1.05;;;22.10;99.90;;;;;;5024354;28;20431;-77
2023/05/05 07:46:23;;;;;;;1.00;1.00;;;21.30;99.90;;;;;;5021616;28;20952;-78
2023/05/05 07:48:50;;;;;;;1.23;1.02;;;21.30;99.90;;;;;;5023926;28;20944;-77
2023/05/05 07:51:17;;;;;;;1.30;1.10;;;21.70;99.90;;;;;;5022151;28;20443;-77
2023/05/05 07:53:44;;;;;;;1.45;1.35;;;22.30;99.90;;;;;;5024197;28;20531;-78
2023/05/05 07:56:10;;;;;;;1.35;1.10;;;22.60;99.90;;;;;;5018467;28;20436;-78
2023/05/05 07:58:37;;;;;;;1.50;1.40;;;22.00;99.90;;;;;;5023743;28;20968;-77
2023/05/05 08:01:05;;;;;;;1.20;1.10;;;21.40;99.90;;;;;;5028644;28;20814;-77
2023/05/05 08:03:32;;;;;;;1.30;1.20;;;20.80;99.90;;;;;;5023670;28;20850;-77
2023/05/05 08:06:20;;;;;;;1.23;1.23;;;20.10;99.90;;;;;;5025054;28;20470;-76
2023/05/05 08:08:48;;;;;;;3.35;1.63;;;20.00;99.90;;;;;;5026000;28;20434;-77
2023/05/05 08:11:15;;;;;;;1.30;1.30;;;20.40;99.90;;;;;;5018042;28;20440;-77
2023/05/05 08:13:43;;;;;;;1.70;1.20;;;20.80;99.90;;;;;;5028206;28;20452;-77
2023/05/05 08:16:10;;;;;;;1.25;1.25;;;20.80;99.90;;;;;;5029442;28;20521;-78
2023/05/05 08:18:37;;;;;;;1.10;1.10;;;21.00;99.90;;;;;;5028636;28;20432;-78
2023/05/05 08:21:07;;;;;;;1.40;1.35;;;21.20;99.90;;;;;;5026377;28;20456;-77
2023/05/05 08:23:35;;;;;;;1.20;1.10;;;22.30;99.90;;;;;;5014252;28;20446;-77
2023/05/05 08:26:05;;;;;;;1.02;1.02;;;23.20;99.90;;;;;;5027914;28;20429;-77
2023/05/05 08:28:35;;;;;;;1.70;1.60;;;23.90;99.90;;;;;;5019883;28;20484;-78
2023/05/05 08:31:06;;;;;;;1.30;1.20;;;24.30;99.90;;;;;;5028316;28;20477;-76
2023/05/05 08:33:33;;;;;;;1.10;1.10;;;24.10;99.90;;;;;;5027865;28;20437;-77
2023/05/05 08:36:00;;;;;;;1.38;1.38;;;23.80;99.90;;;;;;5026031;28;20474;-78
2023/05/05 08:38:26;;;;;;;1.50;1.40;;;24.40;99.90;;;;;;5025868;28;20447;-76
2023/05/05 08:40:53;;;;;;;1.10;1.10;;;24.30;99.90;;;;;;5027298;28;20960;-78
2023/05/05 08:43:22;;;;;;;1.63;1.52;;;24.50;99.90;;;;;;5024027;28;20472;-78
2023/05/05 08:45:50;;;;;;;1.35;1.35;;;24.90;99.90;;;;;;5027686;28;20569;-77
2023/05/05 08:48:21;;;;;;;1.20;1.20;;;25.30;99.90;;;;;;5023659;28;20434;-79
2023/05/05 08:50:57;;;;;;;1.30;1.20;;;24.90;99.90;;;;;;5015517;28;20999;-80
2023/05/05 08:53:31;;;;;;;1.90;1.42;;;25.30;99.90;;;;;;5030813;28;20425;-78
2023/05/05 08:56:03;;;;;;;1.40;1.30;;;25.30;99.90;;;;;;5030573;28;20538;-77
2023/05/05 08:58:30;;;;;;;1.83;1.33;;;25.60;99.90;;;;;;5015296;28;20520;-78
2023/05/05 09:01:06;;;;;;;1.17;1.17;;;25.00;99.90;;;;;;5028856;28;20427;-78
2023/05/05 09:03:37;;;;;;;1.60;1.50;;;25.60;99.90;;;;;;5031085;28;20466;-78
2023/05/05 09:06:08;;;;;;;1.63;1.35;;;25.80;99.90;;;;;;5026552;28;20931;-78
2023/05/05 09:08:39;;;;;;;1.00;1.00;;;25.60;99.90;;;;;;5022723;28;20455;-78
2023/05/05 09:11:06;;;;;;;1.40;1.30;;;25.70;99.90;;;;;;5021769;28;20519;-77
2023/05/05 09:13:32;;;;;;;1.63;1.60;;;25.30;99.90;;;;;;5025425;28;20530;-78
2023/05/05 09:15:59;;;;;;;1.60;1.33;;;25.10;99.90;;;;;;5027230;28;20427;-77
2023/05/05 09:18:29;;;;;;;1.10;1.10;;;25.30;99.90;;;;;;5023295;28;20428;-77
2023/05/05 09:20:57;;;;;;;1.15;1.10;;;25.70;99.90;;;;;;5027776;28;20434;-78
2023/05/05 09:23:25;;;;;;;1.30;1.20;;;25.60;99.90;;;;;;5028521;28;20518;-79
2023/05/05 09:26:07;;;;;;;1.13;1.13;;;25.50;99.90;;;;;;5027813;28;20435;-78
2023/05/05 09:28:34;;;;;;;0.95;0.95;;;25.80;99.90;;;;;;5026710;28;20481;-77
2023/05/05 09:31:15;;;;;;;1.08;1.00;;;26.10;99.90;;;;;;5029844;28;20487;-77
2023/05/05 09:33:46;;;;;;;1.10;1.00;;;25.80;99.90;;;;;;5029450;28;20456;-77
2023/05/05 09:36:13;;;;;;;1.38;1.38;;;26.30;99.90;;;;;;5027584;28;20431;-78
2023/05/05 09:38:40;;;;;;;1.40;1.35;;;25.80;99.90;;;;;;5028164;28;20422;-78
2023/05/05 09:41:07;;;;;;;1.20;1.10;;;26.10;99.90;;;;;;5024741;28;20941;-79
2023/05/05 09:43:50;;;;;;;1.40;1.23;;;26.30;99.90;;;;;;5026272;28;20438;-78
2023/05/05 09:46:18;;;;;;;0.95;0.90;;;26.20;99.90;;;;;;5030465;28;20580;-78
2023/05/05 09:48:44;;;;;;;0.75;0.75;;;26.50;99.90;;;;;;5028891;28;20443;-78
2023/05/05 09:51:15;;;;;;;1.48;1.10;;;27.10;99.90;;;;;;5026574;28;20445;-78
2023/05/05 09:53:42;;;;;;;3.15;0.90;;;27.50;99.90;;;;;;5022446;28;20452;-78
2023/05/05 09:56:09;;;;;;;0.63;0.63;;;27.30;99.90;;;;;;5041639;28;20433;-78
2023/05/05 09:58:36;;;;;;;0.80;0.80;;;26.80;99.90;;;;;;5024075;28;20442;-78
2023/05/05 10:01:03;;;;;;;0.75;0.75;;;26.10;99.90;;;;;;5020430;28;20439;-78
2023/05/05 10:03:32;;;;;;;1.50;1.40;;;25.50;99.90;;;;;;5012607;28;20433;-78
2023/05/05 10:05:59;;;;;;;1.27;1.27;;;25.80;99.90;;;;;;5039735;28;20419;-78
2023/05/05 10:08:32;;;;;;;1.00;0.70;;;26.40;99.90;;;;;;5024126;28;20438;-78
2023/05/05 10:11:03;;;;;;;0.70;0.70;;;26.70;99.90;;;;;;5031163;28;20444;-78
2023/05/05 10:13:35;;;;;;;0.77;0.77;;;26.30;99.90;;;;;;5022226;28;20435;-78
2023/05/05 10:16:04;;;;;;;0.40;0.40;;;26.80;99.90;;;;;;5024727;28;20431;-78
2023/05/05 10:18:31;;;;;;;0.65;0.65;;;27.00;99.90;;;;;;5023578;28;20725;-78
2023/05/05 10:21:00;;;;;;;0.52;0.52;;;26.80;99.90;;;;;;5026006;28;20434;-76
2023/05/05 10:23:51;;;;;;;0.50;0.50;;;26.60;99.90;;;;;;5025562;28;20518;-78
2023/05/05 10:26:27;;;;;;;0.20;0.20;;;26.90;99.90;;;;;;5002684;28;20816;-77
2023/05/05 10:28:55;;;;;;;0.55;0.35;;;27.00;99.90;;;;;;5024586;28;20429;-78
2023/05/05 10:31:51;;;;;;;0.28;0.28;;;26.80;99.90;;;;;;5025918;28;20423;-77
2023/05/05 10:34:18;;;;;;;0.20;0.20;;;27.30;99.90;;;;;;5024103;28;20441;-78
2023/05/05 10:36:48;;;;;;;0.20;0.20;;;27.90;99.90;;;;;;5024987;28;20441;-77
2023/05/05 10:39:21;;;;;;;0.28;0.28;;;27.90;99.90;;;;;;5022691;28;20457;-78
2023/05/05 10:41:48;;;;;;;0.30;0.30;;;27.40;99.90;;;;;;5021724;28;20433;-78
2023/05/05 10:44:16;;;;;;;0.20;0.20;;;26.70;99.90;;;;;;5025982;28;20430;-78
2023/05/05 10:46:43;;;;;;;0.30;0.30;;;26.90;99.90;;;;;;5021602;28;20447;-77
2023/05/05 10:49:27;;;;;;;0.30;0.30;;;26.70;99.90;;;;;;5019962;28;20510;-77
2023/05/05 10:52:07;;;;;;;0.22;0.22;;;27.00;99.90;;;;;;5014525;28;20439;-77
2023/05/05 10:54:41;;;;;;;0.60;0.60;;;27.30;99.90;;;;;;5013392;28;20921;-77
2023/05/05 10:57:09;;;;;;;0.80;0.50;;;27.20;99.90;;;;;;5025147;28;20797;-77
2023/05/05 10:59:39;;;;;;;0.32;0.32;;;27.10;99.90;;;;;;5022739;28;22150;-76
2023/05/05 11:02:28;;;;;;;0.30;0.30;;;27.60;99.90;;;;;;5037343;28;20423;-77
2023/05/05 11:05:22;;;;;;;0.80;0.80;;;28.30;99.90;;;;;;5016550;28;20516;-76
2023/05/05 11:07:50;;;;;;;0.70;0.40;;;28.90;99.90;;;;;;5023017;28;20522;-77
2023/05/05 11:10:19;;;;;;;0.20;0.20;;;28.90;99.90;;;;;;5025717;28;20456;-77
2023/05/05 11:12:57;;;;;;;0.40;0.40;;;29.00;99.90;;;;;;5020230;28;20770;-78
2023/05/05 11:15:30;;;;;;;0.30;0.30;;;28.70;99.90;;;;;;5024920;28;20529;-78
2023/05/05 11:18:01;;;;;;;1.00;0.30;;;28.80;99.90;;;;;;5023595;28;20462;-78
2023/05/05 11:20:35;;;;;;;0.30;0.30;;;28.60;99.90;;;;;;5026053;28;20877;-76
2023/05/05 11:23:11;;;;;;;1.20;0.40;;;28.40;99.90;;;;;;5020334;28;20428;-76
2023/05/05 11:25:45;;;;;;;0.75;0.32;;;28.30;99.90;;;;;;5021328;28;20925;-78
2023/05/05 11:28:16;;;;;;;0.13;0.13;;;28.20;99.90;;;;;;5011495;28;20929;-78
2023/05/05 11:30:55;;;;;;;0.15;0.15;;;28.40;99.90;;;;;;5022878;28;20450;-77
2023/05/05 11:33:29;;;;;;;0.20;0.20;;;27.50;99.90;;;;;;5020534;28;20448;-77
2023/05/05 11:36:16;;;;;;;0.30;0.30;;;27.40;99.90;;;;;;5025794;28;20462;-77
2023/05/05 11:39:08;;;;;;;0.20;0.20;;;27.80;99.90;;;;;;5020478;28;20435;-78
2023/05/05 11:42:10;;;;;;;0.20;0.20;;;28.10;99.90;;;;;;5021623;28;20479;-76
2023/05/05 11:44:39;;;;;;;0.20;0.20;;;27.90;99.90;;;;;;5012047;28;20526;-76
2023/05/05 11:47:07;;;;;;;0.28;0.28;;;27.40;99.90;;;;;;5025084;28;20937;-78
2023/05/05 11:49:38;;;;;;;0.25;0.25;;;27.40;99.90;;;;;;5025722;28;20475;-77
2023/05/05 11:52:11;;;;;;;0.40;0.40;;;27.60;99.90;;;;;;5025534;28;20433;-78
2023/05/05 11:54:49;;;;;;;1.10;0.20;;;27.70;99.90;;;;;;5021560;28;20439;-77
2023/05/05 11:57:27;;;;;;;0.20;0.20;;;27.80;99.90;;;;;;5025169;28;20465;-78
2023/05/05 12:00:07;;;;;;;1.50;0.50;;;28.30;99.90;;;;;;5034206;28;20939;-78
2023/05/05 12:02:35;;;;;;;0.47;0.30;;;28.30;99.90;;;;;;5034051;28;20438;-78
2023/05/05 12:05:02;;;;;;;0.30;0.30;;;28.50;99.90;;;;;;5021772;28;20943;-77
2023/05/05 12:07:32;;;;;;;0.20;0.20;;;28.40;99.90;;;;;;5022244;28;20442;-78
2023/05/05 12:09:59;;;;;;;0.47;0.47;;;28.00;99.90;;;;;;5022417;28;20430;-78
2023/05/05 12:12:34;;;;;;;0.30;0.30;;;28.00;99.90;;;;;;5022644;28;20426;-78
2023/05/05 12:15:01;;;;;;;0.60;0.30;;;27.50;99.90;;;;;;5023405;28;20441;-78
2023/05/05 12:17:36;;;;;;;0.28;0.28;;;27.70;99.90;;;;;;5013586;28;20520;-78
2023/05/05 12:20:03;;;;;;;0.30;0.30;;;28.40;99.90;;;;;;5020040;28;20441;-77
2023/05/05 12:22:33;;;;;;;0.93;0.40;;;28.40;99.90;;;;;;5021758;28;20458;-78
2023/05/05 12:25:05;;;;;;;0.80;0.30;;;28.50;99.90;;;;;;5013586;28;20436;-77
2023/05/05 12:27:34;;;;;;;0.20;0.20;;;28.40;99.90;;;;;;5016874;28;20846;-78
2023/05/05 12:30:13;;;;;;;0.20;0.20;;;28.70;99.90;;;;;;5014192;28;21018;-78
2023/05/05 12:32:42;;;;;;;0.20;0.20;;;28.40;99.90;;;;;;5022124;28;20760;-78
2023/05/05 12:35:09;;;;;;;0.20;0.20;;;28.10;99.90;;;;;;5020136;28;20446;-76
2023/05/05 12:37:37;;;;;;;0.20;0.20;;;28.10;99.90;;;;;;5015851;28;20442;-77
2023/05/05 12:40:07;;;;;;;0.30;0.30;;;28.20;99.90;;;;;;5013384;28;20445;-77
2023/05/05 12:42:40;;;;;;;0.40;0.40;;;28.70;99.90;;;;;;5011764;28;20443;-77
2023/05/05 12:45:21;;;;;;;0.20;0.20;;;29.00;99.90;;;;;;5044901;28;20848;-77
2023/05/05 12:47:48;;;;;;;0.20;0.20;;;28.90;99.90;;;;;;5043353;28;20438;-77
2023/05/05 12:50:31;;;;;;;0.20;0.20;;;29.20;99.90;;;;;;5025507;28;20530;-77
2023/05/05 12:52:58;;;;;;;0.30;0.30;;;29.40;99.90;;;;;;5024949;28;20960;-77
2023/05/05 12:55:38;;;;;;;0.20;0.20;;;29.10;99.90;;;;;;5025242;28;20435;-76
2023/05/05 12:58:05;;;;;;;0.28;0.28;;;29.70;99.90;;;;;;5014399;28;20440;-77
2023/05/05 13:00:32;;;;;;;0.65;0.35;;;29.60;99.90;;;;;;5022499;28;20491;-77
2023/05/05 13:03:00;;;;;;;0.30;0.28;;;29.40;99.90;;;;;;5026632;28;20438;-77
2023/05/05 13:05:31;;;;;;;0.20;0.20;;;29.20;99.90;;;;;;5017374;28;20442;-77